sensor_id;sensor_type;location;lat;lon;timestamp;P1;durP1;ratioP1;P2;durP2;ratioP2
12810;SDS011;6470;47.654;7.896;2023-04-10T00:02:17;0.10;;;0.10;;
12810;SDS011;6470;47.654;7.896;2023-04-10T00:04:43;0.10;;;0.10;;
12810;SDS011;6470;47.654;7.896;2023-04-10T00:07:10;0.10;;;0.10;;
12810;SDS011;6470;47.654;7.896;2023-04-10T00:09:36;0.10;;;0.10;;
12810;SDS011;6470;47.654;7.896;2023-04-10T00:12:02;0.10;;;0.10;;
12810;SDS011;6470;47.654;7.896;2023-04-10T00:14:28;0.10;;;0.10;;
12810;SDS011;6470;47.654;7.896;2023-04-10T00:16:54;0.10;;;0.10;;
12810;SDS011;6470;47.654;7.896;2023-04-10T00:19:20;0.10;;;0.10;;
12810;SDS011;6470;47.654;7.896;2023-04-10T00:21:45;0.10;;;0.10;;
12810;SDS011;6470;47.654;7.896;2023-04-10T00:24:12;0.10;;;0.10;;
12810;SDS011;6470;47.654;7.896;2023-04-10T00:26:38;0.10;;;0.10;;
12810;SDS011;6470;47.654;7.896;2023-04-10T00:29:04;0.10;;;0.10;;
12810;SDS011;6470;47.654;7.896;2023-04-10T00:31:30;0.10;;;0.10;;
12810;SDS011;6470;47.654;7.896;2023-04-10T00:33:56;0.10;;;0.10;;
12810;SDS011;6470;47.654;7.896;2023-04-10T00:36:22;0.13;;;0.13;;
12810;SDS011;6470;47.654;7.896;2023-04-10T00:38:48;0.20;;;0.20;;
12810;SDS011;6470;47.654;7.896;2023-04-10T00:41:14;0.10;;;0.10;;
12810;SDS011;6470;47.654;7.896;2023-04-10T00:43:41;0.10;;;0.10;;
12810;SDS011;6470;47.654;7.896;2023-04-10T00:46:08;0.20;;;0.20;;
12810;SDS011;6470;47.654;7.896;2023-04-10T00:48:34;0.10;;;0.10;;
12810;SDS011;6470;47.654;7.896;2023-04-10T00:51:00;0.10;;;0.10;;
12810;SDS011;6470;47.654;7.896;2023-04-10T00:53:27;0.10;;;0.10;;
12810;SDS011;6470;47.654;7.896;2023-04-10T00:55:53;0.10;;;0.10;;
12810;SDS011;6470;47.654;7.896;2023-04-10T00:58:20;0.10;;;0.10;;
12810;SDS011;6470;47.654;7.896;2023-04-10T01:00:46;0.10;;;0.10;;
12810;SDS011;6470;47.654;7.896;2023-04-10T01:03:13;0.10;;;0.10;;
12810;SDS011;6470;47.654;7.896;2023-04-10T01:05:46;0.10;;;0.10;;
12810;SDS011;6470;47.654;7.896;2023-04-10T01:10:56;0.10;;;0.10;;
12810;SDS011;6470;47.654;7.896;2023-04-10T01:13:48;0.10;;;0.10;;
12810;SDS011;6470;47.654;7.896;2023-04-10T01:16:25;0.10;;;0.10;;
12810;SDS011;6470;47.654;7.896;2023-04-10T01:19:01;0.10;;;0.10;;
12810;SDS011;6470;47.654;7.896;2023-04-10T01:21:36;0.10;;;0.10;;
12810;SDS011;6470;47.654;7.896;2023-04-10T01:29:28;0.10;;;0.10;;
12810;SDS011;6470;47.654;7.896;2023-04-10T01:31:57;0.10;;;0.10;;
12810;SDS011;6470;47.654;7.896;2023-04-10T01:34:32;0.10;;;0.10;;
12810;SDS011;6470;47.654;7.896;2023-04-10T01:37:03;0.20;;;0.20;;
12810;SDS011;6470;47.654;7.896;2023-04-10T01:39:33;0.10;;;0.10;;
12810;SDS011;6470;47.654;7.896;2023-04-10T01:42:03;0.10;;;0.10;;
12810;SDS011;6470;47.654;7.896;2023-04-10T01:44:31;0.10;;;0.10;;
12810;SDS011;6470;47.654;7.896;2023-04-10T01:47:00;0.10;;;0.10;;
12810;SDS011;6470;47.654;7.896;2023-04-10T01:49:28;0.20;;;0.20;;
12810;SDS011;6470;47.654;7.896;2023-04-10T01:51:55;0.10;;;0.10;;
12810;SDS011;6470;47.654;7.896;2023-04-10T01:54:30;0.13;;;0.13;;
12810;SDS011;6470;47.654;7.896;2023-04-10T01:56:59;0.10;;;0.10;;
12810;SDS011;6470;47.654;7.896;2023-04-10T01:59:28;0.10;;;0.10;;
12810;SDS011;6470;47.654;7.896;2023-04-10T02:01:58;0.10;;;0.10;;
12810;SDS011;6470;47.654;7.896;2023-04-10T02:04:25;0.10;;;0.10;;
12810;SDS011;6470;47.654;7.896;2023-04-10T02:12:30;0.10;;;0.10;;
12810;SDS011;6470;47.654;7.896;2023-04-10T02:15:01;0.10;;;0.10;;
12810;SDS011;6470;47.654;7.896;2023-04-10T02:17:29;0.10;;;0.10;;
12810;SDS011;6470;47.654;7.896;2023-04-10T02:19:58;0.20;;;0.20;;
12810;SDS011;6470;47.654;7.896;2023-04-10T02:22:25;0.20;;;0.20;;
12810;SDS011;6470;47.654;7.896;2023-04-10T02:24:51;0.30;;;0.30;;
12810;SDS011;6470;47.654;7.896;2023-04-10T02:27:31;0.10;;;0.10;;
12810;SDS011;6470;47.654;7.896;2023-04-10T02:29:59;0.20;;;0.20;;
12810;SDS011;6470;47.654;7.896;2023-04-10T02:32:27;0.10;;;0.10;;
12810;SDS011;6470;47.654;7.896;2023-04-10T02:34:53;0.10;;;0.10;;
12810;SDS011;6470;47.654;7.896;2023-04-10T02:37:19;0.10;;;0.10;;
12810;SDS011;6470;47.654;7.896;2023-04-10T02:39:45;0.20;;;0.20;;
12810;SDS011;6470;47.654;7.896;2023-04-10T02:42:10;0.15;;;0.15;;
12810;SDS011;6470;47.654;7.896;2023-04-10T02:44:36;0.20;;;0.20;;
12810;SDS011;6470;47.654;7.896;2023-04-10T02:47:03;0.30;;;0.30;;
12810;SDS011;6470;47.654;7.896;2023-04-10T02:49:30;0.20;;;0.20;;
12810;SDS011;6470;47.654;7.896;2023-04-10T02:51:56;0.20;;;0.20;;
12810;SDS011;6470;47.654;7.896;2023-04-10T02:54:21;0.17;;;0.17;;
12810;SDS011;6470;47.654;7.896;2023-04-10T02:56:47;0.00;;;0.00;;
12810;SDS011;6470;47.654;7.896;2023-04-10T02:59:13;0.20;;;0.20;;
12810;SDS011;6470;47.654;7.896;2023-04-10T03:01:39;0.10;;;0.10;;
12810;SDS011;6470;47.654;7.896;2023-04-10T03:04:05;0.30;;;0.30;;
12810;SDS011;6470;47.654;7.896;2023-04-10T03:06:30;0.20;;;0.20;;
12810;SDS011;6470;47.654;7.896;2023-04-10T03:08:56;0.20;;;0.20;;
12810;SDS011;6470;47.654;7.896;2023-04-10T03:11:22;0.20;;;0.20;;
12810;SDS011;6470;47.654;7.896;2023-04-10T03:13:48;0.20;;;0.20;;
12810;SDS011;6470;47.654;7.896;2023-04-10T03:16:14;0.10;;;0.10;;
12810;SDS011;6470;47.654;7.896;2023-04-10T03:18:41;0.10;;;0.10;;
12810;SDS011;6470;47.654;7.896;2023-04-10T03:21:07;0.20;;;0.20;;
12810;SDS011;6470;47.654;7.896;2023-04-10T03:23:33;0.20;;;0.20;;
12810;SDS011;6470;47.654;7.896;2023-04-10T03:25:58;0.20;;;0.20;;
12810;SDS011;6470;47.654;7.896;2023-04-10T03:28:25;0.20;;;0.20;;
12810;SDS011;6470;47.654;7.896;2023-04-10T03:30:51;0.20;;;0.20;;
12810;SDS011;6470;47.654;7.896;2023-04-10T03:33:17;0.20;;;0.20;;
12810;SDS011;6470;47.654;7.896;2023-04-10T03:35:44;0.30;;;0.30;;
12810;SDS011;6470;47.654;7.896;2023-04-10T03:38:10;0.20;;;0.20;;
12810;SDS011;6470;47.654;7.896;2023-04-10T03:40:36;0.10;;;0.10;;
12810;SDS011;6470;47.654;7.896;2023-04-10T03:43:02;0.20;;;0.20;;
12810;SDS011;6470;47.654;7.896;2023-04-10T03:45:27;0.20;;;0.20;;
12810;SDS011;6470;47.654;7.896;2023-04-10T03:47:53;0.20;;;0.20;;
12810;SDS011;6470;47.654;7.896;2023-04-10T03:50:19;0.10;;;0.10;;
12810;SDS011;6470;47.654;7.896;2023-04-10T03:52:45;0.30;;;0.30;;
12810;SDS011;6470;47.654;7.896;2023-04-10T03:55:11;0.10;;;0.10;;
12810;SDS011;6470;47.654;7.896;2023-04-10T03:57:36;0.30;;;0.30;;
12810;SDS011;6470;47.654;7.896;2023-04-10T04:00:03;0.20;;;0.20;;
12810;SDS011;6470;47.654;7.896;2023-04-10T04:02:29;0.10;;;0.10;;
12810;SDS011;6470;47.654;7.896;2023-04-10T04:04:55;0.10;;;0.10;;
12810;SDS011;6470;47.654;7.896;2023-04-10T04:07:21;0.20;;;0.20;;
12810;SDS011;6470;47.654;7.896;2023-04-10T04:09:47;0.20;;;0.20;;
12810;SDS011;6470;47.654;7.896;2023-04-10T04:12:12;0.20;;;0.20;;
12810;SDS011;6470;47.654;7.896;2023-04-10T04:14:38;0.20;;;0.20;;
12810;SDS011;6470;47.654;7.896;2023-04-10T04:17:04;0.20;;;0.20;;
12810;SDS011;6470;47.654;7.896;2023-04-10T04:19:29;0.20;;;0.20;;
12810;SDS011;6470;47.654;7.896;2023-04-10T04:21:55;0.20;;;0.20;;
12810;SDS011;6470;47.654;7.896;2023-04-10T04:24:21;0.20;;;0.20;;
12810;SDS011;6470;47.654;7.896;2023-04-10T04:26:47;0.08;;;0.08;;
12810;SDS011;6470;47.654;7.896;2023-04-10T04:29:13;0.20;;;0.20;;
12810;SDS011;6470;47.654;7.896;2023-04-10T04:31:38;0.20;;;0.20;;
12810;SDS011;6470;47.654;7.896;2023-04-10T04:34:04;0.20;;;0.20;;
12810;SDS011;6470;47.654;7.896;2023-04-10T04:36:30;0.20;;;0.20;;
12810;SDS011;6470;47.654;7.896;2023-04-10T04:38:55;0.20;;;0.20;;
12810;SDS011;6470;47.654;7.896;2023-04-10T04:41:21;0.28;;;0.28;;
12810;SDS011;6470;47.654;7.896;2023-04-10T04:43:47;0.10;;;0.10;;
12810;SDS011;6470;47.654;7.896;2023-04-10T04:46:13;0.20;;;0.20;;
12810;SDS011;6470;47.654;7.896;2023-04-10T04:48:40;0.17;;;0.17;;
12810;SDS011;6470;47.654;7.896;2023-04-10T04:51:06;0.10;;;0.10;;
12810;SDS011;6470;47.654;7.896;2023-04-10T04:53:31;0.22;;;0.22;;
12810;SDS011;6470;47.654;7.896;2023-04-10T04:55:57;0.10;;;0.10;;
12810;SDS011;6470;47.654;7.896;2023-04-10T04:58:23;0.10;;;0.10;;
12810;SDS011;6470;47.654;7.896;2023-04-10T05:00:52;0.13;;;0.13;;
12810;SDS011;6470;47.654;7.896;2023-04-10T05:03:19;0.10;;;0.10;;
12810;SDS011;6470;47.654;7.896;2023-04-10T05:05:45;0.20;;;0.20;;
12810;SDS011;6470;47.654;7.896;2023-04-10T05:08:10;0.20;;;0.20;;
12810;SDS011;6470;47.654;7.896;2023-04-10T05:10:36;0.10;;;0.10;;
12810;SDS011;6470;47.654;7.896;2023-04-10T05:13:02;0.20;;;0.20;;
12810;SDS011;6470;47.654;7.896;2023-04-10T05:15:28;0.10;;;0.10;;
12810;SDS011;6470;47.654;7.896;2023-04-10T05:17:53;0.10;;;0.10;;
12810;SDS011;6470;47.654;7.896;2023-04-10T05:20:19;0.10;;;0.10;;
12810;SDS011;6470;47.654;7.896;2023-04-10T05:22:46;0.10;;;0.10;;
12810;SDS011;6470;47.654;7.896;2023-04-10T05:25:12;0.30;;;0.30;;
12810;SDS011;6470;47.654;7.896;2023-04-10T05:27:37;0.20;;;0.20;;
12810;SDS011;6470;47.654;7.896;2023-04-10T05:30:03;0.10;;;0.10;;
12810;SDS011;6470;47.654;7.896;2023-04-10T05:32:29;0.20;;;0.20;;
12810;SDS011;6470;47.654;7.896;2023-04-10T05:34:55;0.10;;;0.10;;
12810;SDS011;6470;47.654;7.896;2023-04-10T05:37:21;0.20;;;0.20;;
12810;SDS011;6470;47.654;7.896;2023-04-10T05:39:46;0.10;;;0.10;;
12810;SDS011;6470;47.654;7.896;2023-04-10T05:42:12;0.20;;;0.20;;
12810;SDS011;6470;47.654;7.896;2023-04-10T05:44:38;0.10;;;0.10;;
12810;SDS011;6470;47.654;7.896;2023-04-10T05:47:04;0.20;;;0.20;;
12810;SDS011;6470;47.654;7.896;2023-04-10T05:49:29;0.20;;;0.20;;
12810;SDS011;6470;47.654;7.896;2023-04-10T05:51:55;0.10;;;0.10;;
12810;SDS011;6470;47.654;7.896;2023-04-10T05:54:21;0.10;;;0.10;;
12810;SDS011;6470;47.654;7.896;2023-04-10T05:56:47;0.20;;;0.20;;
12810;SDS011;6470;47.654;7.896;2023-04-10T05:59:13;0.20;;;0.20;;
12810;SDS011;6470;47.654;7.896;2023-04-10T06:01:39;0.10;;;0.10;;
12810;SDS011;6470;47.654;7.896;2023-04-10T06:04:05;0.20;;;0.20;;
12810;SDS011;6470;47.654;7.896;2023-04-10T06:06:30;0.20;;;0.20;;
12810;SDS011;6470;47.654;7.896;2023-04-10T06:08:57;0.28;;;0.28;;
12810;SDS011;6470;47.654;7.896;2023-04-10T06:11:23;0.10;;;0.10;;
12810;SDS011;6470;47.654;7.896;2023-04-10T06:13:49;0.20;;;0.20;;
12810;SDS011;6470;47.654;7.896;2023-04-10T06:16:15;0.20;;;0.20;;
12810;SDS011;6470;47.654;7.896;2023-04-10T06:18:40;0.10;;;0.10;;
12810;SDS011;6470;47.654;7.896;2023-04-10T06:21:07;0.20;;;0.20;;
12810;SDS011;6470;47.654;7.896;2023-04-10T06:23:32;0.10;;;0.10;;
12810;SDS011;6470;47.654;7.896;2023-04-10T06:25:58;0.20;;;0.20;;
12810;SDS011;6470;47.654;7.896;2023-04-10T06:28:25;0.20;;;0.20;;
12810;SDS011;6470;47.654;7.896;2023-04-10T06:30:51;0.10;;;0.10;;
12810;SDS011;6470;47.654;7.896;2023-04-10T06:33:16;0.10;;;0.10;;
12810;SDS011;6470;47.654;7.896;2023-04-10T06:35:42;0.10;;;0.10;;
12810;SDS011;6470;47.654;7.896;2023-04-10T06:38:08;0.20;;;0.20;;
12810;SDS011;6470;47.654;7.896;2023-04-10T06:40:34;0.10;;;0.10;;
12810;SDS011;6470;47.654;7.896;2023-04-10T06:43:00;0.10;;;0.10;;
12810;SDS011;6470;47.654;7.896;2023-04-10T06:45:25;0.10;;;0.10;;
12810;SDS011;6470;47.654;7.896;2023-04-10T06:47:51;0.20;;;0.20;;
12810;SDS011;6470;47.654;7.896;2023-04-10T06:50:17;0.10;;;0.10;;
12810;SDS011;6470;47.654;7.896;2023-04-10T06:52:43;0.10;;;0.10;;
12810;SDS011;6470;47.654;7.896;2023-04-10T06:55:10;0.20;;;0.20;;
12810;SDS011;6470;47.654;7.896;2023-04-10T06:57:37;0.20;;;0.20;;
12810;SDS011;6470;47.654;7.896;2023-04-10T07:00:03;0.10;;;0.10;;
12810;SDS011;6470;47.654;7.896;2023-04-10T07:02:30;0.30;;;0.30;;
12810;SDS011;6470;47.654;7.896;2023-04-10T07:04:55;0.10;;;0.10;;
12810;SDS011;6470;47.654;7.896;2023-04-10T07:07:21;0.10;;;0.10;;
12810;SDS011;6470;47.654;7.896;2023-04-10T07:09:47;0.10;;;0.10;;
12810;SDS011;6470;47.654;7.896;2023-04-10T07:12:13;0.10;;;0.10;;
12810;SDS011;6470;47.654;7.896;2023-04-10T07:14:39;0.10;;;0.10;;
12810;SDS011;6470;47.654;7.896;2023-04-10T07:17:05;0.10;;;0.10;;
12810;SDS011;6470;47.654;7.896;2023-04-10T07:19:31;0.10;;;0.10;;
12810;SDS011;6470;47.654;7.896;2023-04-10T07:21:56;0.00;;;0.00;;
12810;SDS011;6470;47.654;7.896;2023-04-10T07:24:22;0.00;;;0.00;;
12810;SDS011;6470;47.654;7.896;2023-04-10T07:26:48;0.00;;;0.00;;
12810;SDS011;6470;47.654;7.896;2023-04-10T07:29:14;0.10;;;0.10;;
12810;SDS011;6470;47.654;7.896;2023-04-10T07:31:40;0.10;;;0.10;;
12810;SDS011;6470;47.654;7.896;2023-04-10T07:34:06;0.10;;;0.10;;
12810;SDS011;6470;47.654;7.896;2023-04-10T07:36:31;0.10;;;0.10;;
12810;SDS011;6470;47.654;7.896;2023-04-10T07:38:57;0.03;;;0.03;;
12810;SDS011;6470;47.654;7.896;2023-04-10T07:41:23;0.10;;;0.10;;
12810;SDS011;6470;47.654;7.896;2023-04-10T07:43:49;0.10;;;0.10;;
12810;SDS011;6470;47.654;7.896;2023-04-10T07:46:15;0.10;;;0.10;;
12810;SDS011;6470;47.654;7.896;2023-04-10T07:48:41;0.00;;;0.00;;
12810;SDS011;6470;47.654;7.896;2023-04-10T07:51:08;0.00;;;0.00;;
12810;SDS011;6470;47.654;7.896;2023-04-10T07:53:34;0.10;;;0.10;;
12810;SDS011;6470;47.654;7.896;2023-04-10T07:56:01;0.10;;;0.10;;
12810;SDS011;6470;47.654;7.896;2023-04-10T07:58:27;0.10;;;0.10;;
12810;SDS011;6470;47.654;7.896;2023-04-10T08:00:52;0.08;;;0.08;;
12810;SDS011;6470;47.654;7.896;2023-04-10T08:03:18;0.03;;;0.03;;
12810;SDS011;6470;47.654;7.896;2023-04-10T08:05:44;0.00;;;0.00;;
12810;SDS011;6470;47.654;7.896;2023-04-10T08:08:10;0.10;;;0.10;;
12810;SDS011;6470;47.654;7.896;2023-04-10T08:10:36;0.00;;;0.00;;
12810;SDS011;6470;47.654;7.896;2023-04-10T08:13:02;0.10;;;0.10;;
12810;SDS011;6470;47.654;7.896;2023-04-10T08:15:28;0.00;;;0.00;;
12810;SDS011;6470;47.654;7.896;2023-04-10T08:17:54;0.00;;;0.00;;
12810;SDS011;6470;47.654;7.896;2023-04-10T08:20:20;0.10;;;0.10;;
12810;SDS011;6470;47.654;7.896;2023-04-10T08:22:46;0.00;;;0.00;;
12810;SDS011;6470;47.654;7.896;2023-04-10T08:25:11;0.00;;;0.00;;
12810;SDS011;6470;47.654;7.896;2023-04-10T08:27:37;0.10;;;0.10;;
12810;SDS011;6470;47.654;7.896;2023-04-10T08:30:03;0.10;;;0.10;;
12810;SDS011;6470;47.654;7.896;2023-04-10T08:32:29;0.00;;;0.00;;
12810;SDS011;6470;47.654;7.896;2023-04-10T08:34:55;0.00;;;0.00;;
12810;SDS011;6470;47.654;7.896;2023-04-10T08:37:21;0.00;;;0.00;;
12810;SDS011;6470;47.654;7.896;2023-04-10T08:39:47;0.00;;;0.00;;
12810;SDS011;6470;47.654;7.896;2023-04-10T08:42:13;0.10;;;0.10;;
12810;SDS011;6470;47.654;7.896;2023-04-10T08:44:39;0.00;;;0.00;;
12810;SDS011;6470;47.654;7.896;2023-04-10T08:47:05;0.00;;;0.00;;
12810;SDS011;6470;47.654;7.896;2023-04-10T08:52:19;0.00;;;0.00;;
12810;SDS011;6470;47.654;7.896;2023-04-10T08:54:47;0.10;;;0.10;;
12810;SDS011;6470;47.654;7.896;2023-04-10T08:57:19;0.08;;;0.08;;
12810;SDS011;6470;47.654;7.896;2023-04-10T08:59:46;0.00;;;0.00;;
12810;SDS011;6470;47.654;7.896;2023-04-10T09:02:12;0.10;;;0.10;;
12810;SDS011;6470;47.654;7.896;2023-04-10T09:04:38;0.00;;;0.00;;
12810;SDS011;6470;47.654;7.896;2023-04-10T09:07:04;0.00;;;0.00;;
12810;SDS011;6470;47.654;7.896;2023-04-10T09:09:30;0.00;;;0.00;;
12810;SDS011;6470;47.654;7.896;2023-04-10T09:11:59;0.10;;;0.10;;
12810;SDS011;6470;47.654;7.896;2023-04-10T09:14:28;0.00;;;0.00;;
12810;SDS011;6470;47.654;7.896;2023-04-10T09:19:47;0.10;;;0.10;;
12810;SDS011;6470;47.654;7.896;2023-04-10T09:22:14;0.10;;;0.10;;
12810;SDS011;6470;47.654;7.896;2023-04-10T09:24:41;0.00;;;0.00;;
12810;SDS011;6470;47.654;7.896;2023-04-10T09:27:09;0.00;;;0.00;;
12810;SDS011;6470;47.654;7.896;2023-04-10T09:29:45;0.00;;;0.00;;
12810;SDS011;6470;47.654;7.896;2023-04-10T09:35:08;0.00;;;0.00;;
12810;SDS011;6470;47.654;7.896;2023-04-10T09:37:35;0.00;;;0.00;;
12810;SDS011;6470;47.654;7.896;2023-04-10T09:40:03;0.00;;;0.00;;
12810;SDS011;6470;47.654;7.896;2023-04-10T09:42:33;0.00;;;0.00;;
12810;SDS011;6470;47.654;7.896;2023-04-10T09:45:01;0.00;;;0.00;;
12810;SDS011;6470;47.654;7.896;2023-04-10T09:47:28;0.00;;;0.00;;
12810;SDS011;6470;47.654;7.896;2023-04-10T09:49:57;0.00;;;0.00;;
12810;SDS011;6470;47.654;7.896;2023-04-10T09:52:29;0.00;;;0.00;;
12810;SDS011;6470;47.654;7.896;2023-04-10T09:54:59;0.00;;;0.00;;
12810;SDS011;6470;47.654;7.896;2023-04-10T09:57:30;0.00;;;0.00;;
12810;SDS011;6470;47.654;7.896;2023-04-10T09:59:58;0.00;;;0.00;;
12810;SDS011;6470;47.654;7.896;2023-04-10T10:02:27;0.00;;;0.00;;
12810;SDS011;6470;47.654;7.896;2023-04-10T10:04:53;0.00;;;0.00;;
12810;SDS011;6470;47.654;7.896;2023-04-10T10:07:20;0.00;;;0.00;;
12810;SDS011;6470;47.654;7.896;2023-04-10T10:09:48;0.00;;;0.00;;
12810;SDS011;6470;47.654;7.896;2023-04-10T10:13:01;0.00;;;0.00;;
12810;SDS011;6470;47.654;7.896;2023-04-10T10:18:06;0.00;;;0.00;;
12810;SDS011;6470;47.654;7.896;2023-04-10T10:20:44;0.00;;;0.00;;
12810;SDS011;6470;47.654;7.896;2023-04-10T10:23:11;0.00;;;0.00;;
12810;SDS011;6470;47.654;7.896;2023-04-10T10:25:39;0.00;;;0.00;;
12810;SDS011;6470;47.654;7.896;2023-04-10T10:28:06;0.00;;;0.00;;
12810;SDS011;6470;47.654;7.896;2023-04-10T10:30:37;0.10;;;0.10;;
12810;SDS011;6470;47.654;7.896;2023-04-10T10:33:05;0.00;;;0.00;;
12810;SDS011;6470;47.654;7.896;2023-04-10T10:35:33;0.00;;;0.00;;
12810;SDS011;6470;47.654;7.896;2023-04-10T10:38:01;0.00;;;0.00;;
12810;SDS011;6470;47.654;7.896;2023-04-10T10:45:59;0.00;;;0.00;;
12810;SDS011;6470;47.654;7.896;2023-04-10T10:48:28;0.10;;;0.10;;
12810;SDS011;6470;47.654;7.896;2023-04-10T10:51:00;0.10;;;0.10;;
12810;SDS011;6470;47.654;7.896;2023-04-10T10:53:34;0.00;;;0.00;;
12810;SDS011;6470;47.654;7.896;2023-04-10T10:56:45;0.00;;;0.00;;
12810;SDS011;6470;47.654;7.896;2023-04-10T10:58:52;0.00;;;0.00;;
12810;SDS011;6470;47.654;7.896;2023-04-10T11:01:21;0.00;;;0.00;;
12810;SDS011;6470;47.654;7.896;2023-04-10T11:03:49;0.00;;;0.00;;
12810;SDS011;6470;47.654;7.896;2023-04-10T11:06:15;0.00;;;0.00;;
12810;SDS011;6470;47.654;7.896;2023-04-10T11:08:45;0.00;;;0.00;;
12810;SDS011;6470;47.654;7.896;2023-04-10T11:16:18;0.00;;;0.00;;
12810;SDS011;6470;47.654;7.896;2023-04-10T11:21:11;0.00;;;0.00;;
12810;SDS011;6470;47.654;7.896;2023-04-10T11:23:38;0.00;;;0.00;;
12810;SDS011;6470;47.654;7.896;2023-04-10T11:31:33;0.00;;;0.00;;
12810;SDS011;6470;47.654;7.896;2023-04-10T11:34:03;0.00;;;0.00;;
12810;SDS011;6470;47.654;7.896;2023-04-10T11:36:30;0.00;;;0.00;;
12810;SDS011;6470;47.654;7.896;2023-04-10T11:39:00;0.00;;;0.00;;
12810;SDS011;6470;47.654;7.896;2023-04-10T11:41:33;0.00;;;0.00;;
12810;SDS011;6470;47.654;7.896;2023-04-10T11:44:01;0.00;;;0.00;;
12810;SDS011;6470;47.654;7.896;2023-04-10T11:46:29;0.00;;;0.00;;
12810;SDS011;6470;47.654;7.896;2023-04-10T11:48:58;0.00;;;0.00;;
12810;SDS011;6470;47.654;7.896;2023-04-10T11:51:31;0.00;;;0.00;;
12810;SDS011;6470;47.654;7.896;2023-04-10T11:54:10;0.00;;;0.00;;
12810;SDS011;6470;47.654;7.896;2023-04-10T11:56:37;0.00;;;0.00;;
12810;SDS011;6470;47.654;7.896;2023-04-10T11:59:05;0.00;;;0.00;;
12810;SDS011;6470;47.654;7.896;2023-04-10T12:01:38;0.00;;;0.00;;
12810;SDS011;6470;47.654;7.896;2023-04-10T12:04:14;0.00;;;0.00;;
12810;SDS011;6470;47.654;7.896;2023-04-10T12:06:50;0.00;;;0.00;;
12810;SDS011;6470;47.654;7.896;2023-04-10T12:09:18;0.10;;;0.10;;
12810;SDS011;6470;47.654;7.896;2023-04-10T12:11:55;0.00;;;0.00;;
12810;SDS011;6470;47.654;7.896;2023-04-10T12:14:28;0.00;;;0.00;;
12810;SDS011;6470;47.654;7.896;2023-04-10T12:16:56;0.00;;;0.00;;
12810;SDS011;6470;47.654;7.896;2023-04-10T12:19:22;0.00;;;0.00;;
12810;SDS011;6470;47.654;7.896;2023-04-10T12:21:48;0.00;;;0.00;;
12810;SDS011;6470;47.654;7.896;2023-04-10T12:24:39;0.00;;;0.00;;
12810;SDS011;6470;47.654;7.896;2023-04-10T12:29:46;0.03;;;0.03;;
12810;SDS011;6470;47.654;7.896;2023-04-10T12:32:13;0.00;;;0.00;;
12810;SDS011;6470;47.654;7.896;2023-04-10T12:34:38;0.00;;;0.00;;
12810;SDS011;6470;47.654;7.896;2023-04-10T12:37:05;0.00;;;0.00;;
12810;SDS011;6470;47.654;7.896;2023-04-10T12:39:31;0.10;;;0.10;;
12810;SDS011;6470;47.654;7.896;2023-04-10T12:44:53;0.00;;;0.00;;
12810;SDS011;6470;47.654;7.896;2023-04-10T12:47:19;0.00;;;0.00;;
12810;SDS011;6470;47.654;7.896;2023-04-10T12:52:29;0.10;;;0.10;;
12810;SDS011;6470;47.654;7.896;2023-04-10T12:55:08;0.00;;;0.00;;
12810;SDS011;6470;47.654;7.896;2023-04-10T12:57:41;0.00;;;0.00;;
12810;SDS011;6470;47.654;7.896;2023-04-10T13:00:09;0.00;;;0.00;;
12810;SDS011;6470;47.654;7.896;2023-04-10T13:02:37;0.10;;;0.10;;
12810;SDS011;6470;47.654;7.896;2023-04-10T13:05:03;0.00;;;0.00;;
12810;SDS011;6470;47.654;7.896;2023-04-10T13:07:30;0.00;;;0.00;;
12810;SDS011;6470;47.654;7.896;2023-04-10T13:09:56;0.00;;;0.00;;
12810;SDS011;6470;47.654;7.896;2023-04-10T13:12:23;0.00;;;0.00;;
12810;SDS011;6470;47.654;7.896;2023-04-10T13:14:50;0.00;;;0.00;;
12810;SDS011;6470;47.654;7.896;2023-04-10T13:17:18;0.00;;;0.00;;
12810;SDS011;6470;47.654;7.896;2023-04-10T13:19:44;0.00;;;0.00;;
12810;SDS011;6470;47.654;7.896;2023-04-10T13:22:10;0.00;;;0.00;;
12810;SDS011;6470;47.654;7.896;2023-04-10T13:24:36;0.00;;;0.00;;
12810;SDS011;6470;47.654;7.896;2023-04-10T13:27:02;0.00;;;0.00;;
12810;SDS011;6470;47.654;7.896;2023-04-10T13:29:28;0.00;;;0.00;;
12810;SDS011;6470;47.654;7.896;2023-04-10T13:31:53;0.00;;;0.00;;
12810;SDS011;6470;47.654;7.896;2023-04-10T13:34:19;0.00;;;0.00;;
12810;SDS011;6470;47.654;7.896;2023-04-10T13:36:45;0.00;;;0.00;;
12810;SDS011;6470;47.654;7.896;2023-04-10T13:39:11;0.00;;;0.00;;
12810;SDS011;6470;47.654;7.896;2023-04-10T13:41:37;0.00;;;0.00;;
12810;SDS011;6470;47.654;7.896;2023-04-10T13:44:02;0.00;;;0.00;;
12810;SDS011;6470;47.654;7.896;2023-04-10T13:46:28;0.00;;;0.00;;
12810;SDS011;6470;47.654;7.896;2023-04-10T13:48:54;0.00;;;0.00;;
12810;SDS011;6470;47.654;7.896;2023-04-10T13:51:20;0.00;;;0.00;;
12810;SDS011;6470;47.654;7.896;2023-04-10T13:53:46;0.00;;;0.00;;
12810;SDS011;6470;47.654;7.896;2023-04-10T13:56:11;0.00;;;0.00;;
12810;SDS011;6470;47.654;7.896;2023-04-10T13:58:37;0.00;;;0.00;;
12810;SDS011;6470;47.654;7.896;2023-04-10T14:01:03;0.00;;;0.00;;
12810;SDS011;6470;47.654;7.896;2023-04-10T14:03:29;0.00;;;0.00;;
12810;SDS011;6470;47.654;7.896;2023-04-10T14:05:54;0.00;;;0.00;;
12810;SDS011;6470;47.654;7.896;2023-04-10T14:08:20;0.00;;;0.00;;
12810;SDS011;6470;47.654;7.896;2023-04-10T14:10:46;0.00;;;0.00;;
12810;SDS011;6470;47.654;7.896;2023-04-10T14:13:18;0.03;;;0.03;;
12810;SDS011;6470;47.654;7.896;2023-04-10T14:15:44;0.10;;;0.10;;
12810;SDS011;6470;47.654;7.896;2023-04-10T14:18:10;0.00;;;0.00;;
12810;SDS011;6470;47.654;7.896;2023-04-10T14:20:35;0.00;;;0.00;;
12810;SDS011;6470;47.654;7.896;2023-04-10T14:23:01;0.00;;;0.00;;
12810;SDS011;6470;47.654;7.896;2023-04-10T14:25:27;0.00;;;0.00;;
12810;SDS011;6470;47.654;7.896;2023-04-10T14:27:53;0.00;;;0.00;;
12810;SDS011;6470;47.654;7.896;2023-04-10T14:30:18;0.00;;;0.00;;
12810;SDS011;6470;47.654;7.896;2023-04-10T14:32:44;0.00;;;0.00;;
12810;SDS011;6470;47.654;7.896;2023-04-10T14:35:10;0.00;;;0.00;;
12810;SDS011;6470;47.654;7.896;2023-04-10T14:37:36;0.00;;;0.00;;
12810;SDS011;6470;47.654;7.896;2023-04-10T14:40:02;0.00;;;0.00;;
12810;SDS011;6470;47.654;7.896;2023-04-10T14:42:29;0.00;;;0.00;;
12810;SDS011;6470;47.654;7.896;2023-04-10T14:44:55;0.00;;;0.00;;
12810;SDS011;6470;47.654;7.896;2023-04-10T14:47:23;0.00;;;0.00;;
12810;SDS011;6470;47.654;7.896;2023-04-10T14:49:48;0.00;;;0.00;;
12810;SDS011;6470;47.654;7.896;2023-04-10T14:52:14;0.00;;;0.00;;
12810;SDS011;6470;47.654;7.896;2023-04-10T14:54:40;0.00;;;0.00;;
12810;SDS011;6470;47.654;7.896;2023-04-10T14:57:06;0.00;;;0.00;;
12810;SDS011;6470;47.654;7.896;2023-04-10T14:59:32;0.00;;;0.00;;
12810;SDS011;6470;47.654;7.896;2023-04-10T15:01:57;0.00;;;0.00;;
12810;SDS011;6470;47.654;7.896;2023-04-10T15:04:24;0.00;;;0.00;;
12810;SDS011;6470;47.654;7.896;2023-04-10T15:06:50;0.00;;;0.00;;
12810;SDS011;6470;47.654;7.896;2023-04-10T15:09:16;0.00;;;0.00;;
12810;SDS011;6470;47.654;7.896;2023-04-10T15:11:41;0.00;;;0.00;;
12810;SDS011;6470;47.654;7.896;2023-04-10T15:14:07;0.00;;;0.00;;
12810;SDS011;6470;47.654;7.896;2023-04-10T15:16:33;0.00;;;0.00;;
12810;SDS011;6470;47.654;7.896;2023-04-10T15:18:59;0.00;;;0.00;;
12810;SDS011;6470;47.654;7.896;2023-04-10T15:21:24;0.00;;;0.00;;
12810;SDS011;6470;47.654;7.896;2023-04-10T15:23:51;0.00;;;0.00;;
12810;SDS011;6470;47.654;7.896;2023-04-10T15:26:17;0.00;;;0.00;;
12810;SDS011;6470;47.654;7.896;2023-04-10T15:28:43;0.00;;;0.00;;
12810;SDS011;6470;47.654;7.896;2023-04-10T15:31:09;0.00;;;0.00;;
12810;SDS011;6470;47.654;7.896;2023-04-10T15:33:35;0.00;;;0.00;;
12810;SDS011;6470;47.654;7.896;2023-04-10T15:36:03;0.00;;;0.00;;
12810;SDS011;6470;47.654;7.896;2023-04-10T15:38:29;0.00;;;0.00;;
12810;SDS011;6470;47.654;7.896;2023-04-10T15:40:56;0.00;;;0.00;;
12810;SDS011;6470;47.654;7.896;2023-04-10T15:43:22;0.00;;;0.00;;
12810;SDS011;6470;47.654;7.896;2023-04-10T15:45:48;0.00;;;0.00;;
12810;SDS011;6470;47.654;7.896;2023-04-10T15:48:13;0.00;;;0.00;;
12810;SDS011;6470;47.654;7.896;2023-04-10T15:50:39;0.00;;;0.00;;
12810;SDS011;6470;47.654;7.896;2023-04-10T15:53:05;0.00;;;0.00;;